Time;durP1;ratioP1;P1;durP2;ratioP2;P2;SDS_P1;SDS_P2;PMS_P1;PMS_P2;Temp;Humidity;BMP_temperature;BMP_pressure;BME280_temperature;BME280_humidity;BME280_pressure;Samples;Min_cycle;Max_cycle;Signal;HPM_P1;HPM_P2
2023/05/25 00:02:23;;;;;;;55.78;31.55;;;5.60;99.90;;;;;;4972936;28;20038;-77
2023/05/25 00:04:51;;;;;;;43.85;28.08;;;5.60;99.90;;;;;;4973834;28;21449;-76
2023/05/25 00:07:18;;;;;;;44.83;27.45;;;5.60;99.90;;;;;;4971746;28;20034;-77
2023/05/25 00:09:45;;;;;;;42.10;27.00;;;5.40;99.90;;;;;;4965585;28;20055;-77
2023/05/25 00:12:13;;;;;;;39.80;28.38;;;5.20;99.90;;;;;;4969124;28;20050;-77
2023/05/25 00:14:40;;;;;;;41.47;28.38;;;5.10;99.90;;;;;;4970556;28;20042;-76
2023/05/25 00:17:08;;;;;;;38.30;28.95;;;5.20;99.90;;;;;;4968833;28;20120;-77
2023/05/25 00:19:36;;;;;;;43.72;28.15;;;5.10;99.90;;;;;;4972748;28;20157;-77
2023/05/25 00:22:03;;;;;;;38.45;28.00;;;5.00;99.90;;;;;;4973066;28;20069;-77
2023/05/25 00:24:30;;;;;;;40.33;28.02;;;4.90;99.90;;;;;;4972719;28;20508;-77
2023/05/25 00:26:57;;;;;;;32.78;28.27;;;4.70;99.90;;;;;;4973645;28;20040;-76
2023/05/25 00:29:24;;;;;;;46.70;29.55;;;4.70;99.90;;;;;;4971691;28;20651;-76
2023/05/25 00:31:52;;;;;;;50.15;30.63;;;4.70;99.90;;;;;;4973163;28;20759;-76
2023/05/25 00:34:19;;;;;;;57.40;32.38;;;4.70;99.90;;;;;;4987021;28;20465;-76
2023/05/25 00:36:47;;;;;;;56.72;33.88;;;4.70;99.90;;;;;;4964696;28;20046;-76
2023/05/25 00:39:18;;;;;;;53.25;32.33;;;4.70;99.90;;;;;;4969163;28;20497;-76
2023/05/25 00:41:46;;;;;;;56.88;32.58;;;4.80;99.90;;;;;;4972301;28;20389;-76
2023/05/25 00:44:14;;;;;;;62.80;33.60;;;4.80;99.90;;;;;;4972263;28;20138;-76
2023/05/25 00:46:47;;;;;;;46.50;31.05;;;4.80;99.90;;;;;;4968133;28;20054;-76
2023/05/25 00:49:17;;;;;;;54.83;31.40;;;4.70;99.90;;;;;;4966171;28;20046;-76
2023/05/25 00:51:45;;;;;;;46.00;31.08;;;4.80;99.90;;;;;;4968682;28;20050;-76
2023/05/25 00:54:14;;;;;;;47.75;32.10;;;4.90;99.90;;;;;;4972501;28;20499;-76
2023/05/25 00:57:01;;;;;;;49.83;30.35;;;4.80;99.90;;;;;;4951603;28;20055;-76
2023/05/25 00:59:34;;;;;;;52.28;31.50;;;4.60;99.90;;;;;;4972808;28;20500;-76
2023/05/25 01:02:06;;;;;;;49.60;31.65;;;4.50;99.90;;;;;;4968989;28;20146;-76
2023/05/25 01:04:35;;;;;;;42.78;29.55;;;4.50;99.90;;;;;;4957332;28;20089;-76
2023/05/25 01:07:05;;;;;;;44.40;29.52;;;4.50;99.90;;;;;;5009690;23;20039;-79
2023/05/25 01:09:34;;;;;;;42.63;30.50;;;4.40;99.90;;;;;;4929051;28;20058;-80
2023/05/25 01:12:02;;;;;;;53.33;31.00;;;4.40;99.90;;;;;;4947719;28;20039;-80
2023/05/25 01:14:30;;;;;;;57.17;31.60;;;4.40;99.90;;;;;;4934015;28;20055;-79
2023/05/25 01:16:57;;;;;;;40.20;29.90;;;4.40;99.90;;;;;;4936368;28;20443;-80
2023/05/25 01:19:24;;;;;;;39.35;30.23;;;4.30;99.90;;;;;;4940577;28;20046;-80
2023/05/25 01:22:03;;;;;;;41.38;29.80;;;4.30;99.90;;;;;;4922700;28;20191;-79
2023/05/25 01:24:39;;;;;;;43.65;30.08;;;4.40;99.90;;;;;;4938731;28;20296;-80
2023/05/25 01:27:21;;;;;;;35.85;28.98;;;4.30;99.90;;;;;;4946456;28;20038;-80
2023/05/25 01:29:48;;;;;;;46.55;30.88;;;4.20;99.90;;;;;;4936188;28;20142;-79
2023/05/25 01:32:17;;;;;;;57.97;31.85;;;4.40;99.90;;;;;;4926483;28;20097;-80
2023/05/25 01:34:45;;;;;;;96.13;35.35;;;4.20;99.90;;;;;;4935337;28;20145;-80
2023/05/25 01:37:12;;;;;;;46.75;30.73;;;4.20;99.90;;;;;;4935725;28;20086;-80
2023/05/25 01:39:40;;;;;;;45.63;32.10;;;4.20;99.90;;;;;;4925126;28;20097;-80
2023/05/25 01:42:07;;;;;;;49.35;31.17;;;4.20;99.90;;;;;;4952859;28;20248;-80
2023/05/25 01:44:35;;;;;;;66.40;33.28;;;4.30;99.90;;;;;;4932766;28;20055;-79
2023/05/25 01:47:15;;;;;;;58.80;32.70;;;4.40;99.90;;;;;;4939537;28;20043;-80
2023/05/25 01:49:48;;;;;;;67.13;33.95;;;4.40;99.90;;;;;;4951249;28;20054;-79
2023/05/25 01:52:23;;;;;;;60.50;32.58;;;4.20;99.90;;;;;;4952650;28;20463;-79
2023/05/25 01:55:01;;;;;;;55.67;31.63;;;4.20;99.90;;;;;;4942153;28;20380;-80
2023/05/25 01:57:33;;;;;;;52.13;32.88;;;4.30;99.90;;;;;;4922698;28;20057;-80
2023/05/25 02:00:02;;;;;;;55.38;31.50;;;4.20;99.90;;;;;;4924602;28;20053;-80
2023/05/25 02:02:42;;;;;;;58.00;33.40;;;4.10;99.90;;;;;;4957672;28;20050;-80
2023/05/25 02:05:10;;;;;;;62.88;33.47;;;4.10;99.90;;;;;;4942311;28;20039;-80
2023/05/25 02:07:37;;;;;;;62.95;33.25;;;4.10;99.90;;;;;;4919085;28;20043;-80
2023/05/25 02:10:04;;;;;;;47.35;31.33;;;4.20;99.90;;;;;;4923326;28;20031;-80
2023/05/25 02:12:31;;;;;;;51.45;31.77;;;4.10;99.90;;;;;;4941860;28;20289;-80
2023/05/25 02:14:58;;;;;;;48.80;31.75;;;4.00;99.90;;;;;;4925739;28;20061;-80
2023/05/25 02:17:26;;;;;;;53.17;32.03;;;3.90;99.90;;;;;;4933329;28;20567;-80
2023/05/25 02:19:53;;;;;;;66.25;33.97;;;3.80;99.90;;;;;;4931797;28;20102;-80
2023/05/25 02:22:21;;;;;;;55.85;32.83;;;3.80;99.90;;;;;;4939123;28;20043;-80
2023/05/25 02:24:48;;;;;;;50.97;32.13;;;3.80;99.90;;;;;;4923942;28;20455;-80
2023/05/25 02:27:14;;;;;;;55.35;33.17;;;3.80;99.90;;;;;;4936967;28;20260;-79
2023/05/25 02:29:42;;;;;;;57.65;33.40;;;3.70;99.90;;;;;;4926128;28;20130;-79
2023/05/25 02:32:09;;;;;;;44.65;31.15;;;3.70;99.90;;;;;;4923094;28;20123;-80
2023/05/25 02:34:35;;;;;;;50.70;31.63;;;3.80;99.90;;;;;;4925940;28;20106;-79
2023/05/25 02:37:03;;;;;;;63.58;33.63;;;3.70;99.90;;;;;;4954972;28;20146;-80
2023/05/25 02:39:30;;;;;;;52.88;33.97;;;3.70;99.90;;;;;;4921850;28;20067;-80
2023/05/25 02:41:57;;;;;;;46.35;32.08;;;3.70;99.90;;;;;;4920451;28;20142;-80
2023/05/25 02:44:25;;;;;;;53.70;32.75;;;3.60;99.90;;;;;;4935287;28;20077;-79
2023/05/25 02:46:52;;;;;;;54.67;30.50;;;3.60;99.90;;;;;;4921814;28;20051;-79
2023/05/25 02:49:19;;;;;;;48.88;30.70;;;3.50;99.90;;;;;;4931023;28;20050;-80
2023/05/25 02:51:46;;;;;;;56.13;32.30;;;3.40;99.90;;;;;;4931759;28;20372;-80
2023/05/25 02:54:13;;;;;;;53.58;30.63;;;3.40;99.90;;;;;;4936654;28;20058;-79
2023/05/25 02:56:41;;;;;;;48.10;32.42;;;3.40;99.90;;;;;;4941020;28;20575;-79
2023/05/25 02:59:08;;;;;;;48.90;33.97;;;3.40;99.90;;;;;;4940769;28;20130;-80
2023/05/25 03:01:35;;;;;;;50.97;34.38;;;3.50;99.90;;;;;;4942166;28;20118;-80
2023/05/25 03:04:02;;;;;;;46.72;31.55;;;3.50;99.90;;;;;;4938224;28;20707;-79
2023/05/25 03:06:35;;;;;;;52.15;32.22;;;3.50;99.90;;;;;;4936485;28;20047;-80
2023/05/25 03:09:08;;;;;;;50.67;30.90;;;3.50;99.90;;;;;;4938533;28;20070;-80
2023/05/25 03:11:36;;;;;;;51.33;31.85;;;3.40;99.90;;;;;;4941957;28;20207;-79
2023/05/25 03:14:04;;;;;;;49.63;31.45;;;3.40;99.90;;;;;;4943225;28;20058;-80
2023/05/25 03:16:35;;;;;;;50.65;31.13;;;3.30;99.90;;;;;;4962252;28;20035;-79
2023/05/25 03:19:04;;;;;;;52.95;31.98;;;3.30;99.90;;;;;;4927114;28;20748;-79
2023/05/25 03:21:33;;;;;;;44.00;31.20;;;3.30;99.90;;;;;;4936352;28;20366;-80
2023/05/25 03:23:59;;;;;;;53.92;32.83;;;3.60;99.90;;;;;;4941861;28;20046;-80
2023/05/25 03:26:27;;;;;;;55.40;32.83;;;3.50;99.90;;;;;;4920421;28;20043;-80
2023/05/25 03:28:55;;;;;;;56.53;32.03;;;3.50;99.90;;;;;;4921435;28;20047;-80
2023/05/25 03:31:22;;;;;;;49.72;33.03;;;3.50;99.90;;;;;;4940808;28;20428;-80
2023/05/25 03:33:49;;;;;;;49.90;32.30;;;3.50;99.90;;;;;;4932706;28;20051;-80
2023/05/25 03:36:17;;;;;;;49.78;34.05;;;3.60;99.90;;;;;;4942156;28;20520;-80
2023/05/25 03:38:43;;;;;;;46.47;33.45;;;3.50;99.90;;;;;;4950794;28;20055;-81
2023/05/25 03:41:10;;;;;;;60.75;33.20;;;3.50;99.90;;;;;;4939696;28;20051;-80
2023/05/25 03:43:37;;;;;;;52.25;32.50;;;3.60;99.90;;;;;;4924632;28;20051;-80
2023/05/25 03:46:05;;;;;;;53.80;34.22;;;3.50;99.90;;;;;;4935017;28;20043;-80
2023/05/25 03:48:32;;;;;;;55.25;33.72;;;3.50;99.90;;;;;;4923805;28;20070;-80
2023/05/25 03:50:59;;;;;;;63.72;35.47;;;3.60;99.90;;;;;;4935562;28;20110;-80
2023/05/25 03:53:26;;;;;;;52.85;32.47;;;3.60;99.90;;;;;;4928104;28;20439;-80
2023/05/25 03:55:53;;;;;;;50.15;32.03;;;3.60;99.90;;;;;;4938981;28;20054;-80
2023/05/25 03:58:20;;;;;;;57.70;31.90;;;3.60;99.90;;;;;;4925721;28;20393;-80
2023/05/25 04:00:50;;;;;;;46.03;31.42;;;3.70;99.90;;;;;;4920726;28;20269;-79
2023/05/25 04:03:17;;;;;;;47.28;31.80;;;3.60;99.90;;;;;;4936646;28;20544;-80
2023/05/25 04:05:45;;;;;;;43.10;29.98;;;3.50;99.90;;;;;;4956074;28;20039;-80
2023/05/25 04:08:16;;;;;;;49.97;32.10;;;3.60;99.90;;;;;;4919708;28;20043;-80
2023/05/25 04:10:46;;;;;;;47.33;34.20;;;3.50;99.90;;;;;;4935840;28;20424;-80
2023/05/25 04:13:13;;;;;;;47.90;32.53;;;3.50;99.90;;;;;;4950272;28;20095;-80
2023/05/25 04:15:40;;;;;;;45.80;32.20;;;3.60;99.90;;;;;;4952155;28;20055;-80
2023/05/25 04:18:17;;;;;;;43.92;31.08;;;3.60;99.90;;;;;;4925228;28;20058;-80
2023/05/25 04:20:46;;;;;;;44.80;31.88;;;3.60;99.90;;;;;;4936782;28;20500;-80
2023/05/25 04:23:14;;;;;;;44.50;31.77;;;3.70;99.90;;;;;;4938930;28;20098;-80
2023/05/25 04:25:44;;;;;;;44.13;32.30;;;4.00;99.90;;;;;;4927110;28;20053;-80
2023/05/25 04:28:11;;;;;;;40.53;30.55;;;3.90;99.90;;;;;;4938947;28;20080;-80
2023/05/25 04:30:55;;;;;;;44.45;32.47;;;4.00;99.90;;;;;;4937799;28;20058;-80
2023/05/25 04:33:46;;;;;;;41.13;32.95;;;4.10;99.90;;;;;;4902946;28;20051;-81
2023/05/25 04:36:23;;;;;;;39.83;32.00;;;4.20;99.90;;;;;;4927761;28;20130;-80
2023/05/25 04:38:53;;;;;;;51.92;34.00;;;4.20;99.90;;;;;;4939984;28;20375;-79
2023/05/25 04:41:21;;;;;;;51.58;34.30;;;4.30;99.90;;;;;;4921509;28;20043;-81
2023/05/25 04:43:52;;;;;;;49.25;32.70;;;4.30;99.90;;;;;;4941049;28;20084;-80
2023/05/25 04:46:36;;;;;;;43.38;32.33;;;4.50;99.90;;;;;;4940451;28;20043;-80
2023/05/25 04:49:04;;;;;;;47.40;32.67;;;4.70;99.90;;;;;;4923306;28;20106;-80
2023/05/25 04:51:31;;;;;;;43.75;33.45;;;4.90;99.90;;;;;;4935853;28;20039;-79
2023/05/25 04:53:58;;;;;;;52.95;32.97;;;5.00;99.90;;;;;;4936476;28;20097;-82
2023/05/25 04:56:25;;;;;;;48.45;35.35;;;5.10;99.90;;;;;;4921847;28;20047;-79
2023/05/25 04:58:52;;;;;;;56.80;35.05;;;5.20;99.90;;;;;;4940804;28;20064;-81
2023/05/25 05:01:19;;;;;;;43.28;32.88;;;5.40;99.90;;;;;;4921679;28;20050;-80
2023/05/25 05:03:47;;;;;;;54.72;34.83;;;5.80;99.90;;;;;;4920579;28;20348;-81
2023/05/25 05:06:14;;;;;;;44.08;32.97;;;6.10;99.90;;;;;;4924957;28;20047;-82
2023/05/25 05:08:41;;;;;;;32.72;28.58;;;6.50;99.90;;;;;;4923702;28;20567;-80
2023/05/25 05:11:08;;;;;;;39.13;30.95;;;6.90;99.90;;;;;;4941135;28;20055;-80
2023/05/25 05:13:35;;;;;;;35.65;27.67;;;7.30;99.90;;;;;;4925005;28;20199;-82
2023/05/25 05:16:02;;;;;;;28.42;24.88;;;7.60;99.90;;;;;;4938481;28;20049;-76
2023/05/25 05:18:28;;;;;;;27.17;24.27;;;7.80;99.90;;;;;;4938515;28;20159;-79
2023/05/25 05:20:55;;;;;;;28.42;23.50;;;7.90;99.90;;;;;;4937443;28;20298;-77
2023/05/25 05:23:23;;;;;;;28.13;22.55;;;8.00;99.90;;;;;;4939971;28;20043;-79
2023/05/25 05:25:49;;;;;;;27.52;22.02;;;8.20;99.90;;;;;;4925075;28;20581;-77
2023/05/25 05:28:26;;;;;;;27.13;22.80;;;8.50;99.90;;;;;;4932083;28;20432;-79
2023/05/25 05:30:53;;;;;;;26.58;23.20;;;8.80;99.90;;;;;;4930312;28;20118;-77
2023/05/25 05:33:22;;;;;;;29.05;26.00;;;8.90;99.90;;;;;;4923841;28;20054;-78
2023/05/25 05:35:51;;;;;;;27.63;24.90;;;9.10;99.90;;;;;;4942795;28;20047;-77
2023/05/25 05:38:20;;;;;;;29.50;26.50;;;9.30;99.90;;;;;;4941304;28;20038;-76
2023/05/25 05:40:47;;;;;;;33.10;29.73;;;9.60;99.90;;;;;;4926684;28;20396;-78
2023/05/25 05:43:18;;;;;;;32.05;28.67;;;9.90;99.90;;;;;;4921897;28;20106;-76
2023/05/25 05:45:45;;;;;;;34.95;31.25;;;10.20;99.90;;;;;;4940127;28;20398;-79
2023/05/25 05:48:13;;;;;;;37.65;31.23;;;10.30;99.90;;;;;;4955050;28;20042;-77
2023/05/25 05:50:40;;;;;;;35.13;29.38;;;10.50;99.90;;;;;;4949928;28;20035;-77
2023/05/25 05:53:09;;;;;;;33.80;30.27;;;10.70;99.90;;;;;;4920309;28;20062;-77
2023/05/25 05:55:36;;;;;;;36.03;30.77;;;10.80;99.90;;;;;;4951100;28;20395;-78
2023/05/25 05:58:03;;;;;;;44.33;31.55;;;10.80;99.90;;;;;;4934544;28;20552;-76
2023/05/25 06:00:31;;;;;;;39.10;29.48;;;10.80;99.90;;;;;;4937801;28;20055;-77
2023/05/25 06:02:59;;;;;;;32.67;27.08;;;10.50;99.90;;;;;;4946271;28;20062;-76
2023/05/25 06:05:27;;;;;;;42.40;28.48;;;10.40;99.90;;;;;;4924745;28;20042;-77
2023/05/25 06:07:55;;;;;;;33.10;26.17;;;10.50;99.90;;;;;;4923861;28;20050;-77
2023/05/25 06:10:22;;;;;;;34.90;28.05;;;10.50;99.90;;;;;;4939540;28;20042;-77
2023/05/25 06:12:49;;;;;;;34.35;28.00;;;10.60;99.90;;;;;;4925365;28;20710;-77
2023/05/25 06:15:15;;;;;;;45.67;29.98;;;10.80;99.90;;;;;;4933519;28;20114;-77
2023/05/25 06:17:47;;;;;;;42.33;29.05;;;10.90;99.90;;;;;;4926075;28;20058;-77
2023/05/25 06:20:14;;;;;;;41.50;29.27;;;10.90;99.90;;;;;;4939464;28;20068;-76
2023/05/25 06:22:41;;;;;;;34.70;30.67;;;10.90;99.90;;;;;;4935860;28;20034;-77
2023/05/25 06:25:09;;;;;;;40.80;30.65;;;10.80;99.90;;;;;;4920532;28;20047;-78
2023/05/25 06:27:37;;;;;;;37.50;31.60;;;10.60;99.90;;;;;;4918805;28;20758;-75
2023/05/25 06:30:04;;;;;;;37.20;27.73;;;10.60;99.90;;;;;;4918761;28;20136;-76
2023/05/25 06:32:31;;;;;;;36.72;30.40;;;10.80;99.90;;;;;;4943147;28;20043;-77
2023/05/25 06:34:58;;;;;;;35.88;30.88;;;11.00;99.90;;;;;;4943401;28;20061;-77
2023/05/25 06:37:26;;;;;;;39.08;32.92;;;11.10;99.90;;;;;;4938479;28;20043;-78
2023/05/25 06:39:53;;;;;;;44.65;34.15;;;11.20;99.90;;;;;;4937115;28;20050;-76
2023/05/25 06:42:23;;;;;;;41.97;32.75;;;11.20;99.90;;;;;;4938984;28;20061;-77
2023/05/25 06:44:54;;;;;;;47.47;34.15;;;11.00;99.90;;;;;;4940450;28;20038;-76
2023/05/25 06:47:21;;;;;;;46.88;34.10;;;11.10;99.90;;;;;;4942694;28;20512;-77
2023/05/25 06:49:48;;;;;;;40.58;36.17;;;11.20;99.90;;;;;;4928231;28;20093;-76
2023/05/25 06:52:15;;;;;;;38.47;33.45;;;11.10;99.90;;;;;;4944167;28;20118;-76
2023/05/25 06:54:41;;;;;;;38.80;34.67;;;10.90;99.90;;;;;;4945668;28;20051;-74
2023/05/25 06:57:08;;;;;;;39.70;34.78;;;10.80;99.90;;;;;;4940396;28;20043;-75
2023/05/25 06:59:35;;;;;;;39.22;35.03;;;10.80;99.90;;;;;;4922276;28;20051;-77
2023/05/25 07:02:02;;;;;;;45.17;35.17;;;10.80;99.90;;;;;;4940421;28;20039;-76
2023/05/25 07:04:28;;;;;;;44.15;34.50;;;10.90;99.90;;;;;;4940432;28;20031;-76
2023/05/25 07:06:55;;;;;;;43.30;35.10;;;11.00;99.90;;;;;;4922719;28;20062;-78
2023/05/25 07:09:22;;;;;;;46.83;38.17;;;11.00;99.90;;;;;;4942859;28;20491;-76
2023/05/25 07:11:48;;;;;;;46.65;35.38;;;11.00;99.90;;;;;;4925804;28;20105;-75
2023/05/25 07:14:16;;;;;;;43.67;34.05;;;10.90;99.90;;;;;;4936078;28;20078;-76
2023/05/25 07:16:43;;;;;;;44.17;35.05;;;10.90;99.90;;;;;;4923897;28;20515;-75
2023/05/25 07:19:10;;;;;;;40.35;33.58;;;11.10;99.90;;;;;;4928047;28;20353;-76
2023/05/25 07:21:37;;;;;;;44.75;34.83;;;11.00;99.90;;;;;;4936144;28;20083;-76
2023/05/25 07:24:04;;;;;;;45.03;34.63;;;11.10;99.90;;;;;;4925285;28;20059;-76
2023/05/25 07:26:33;;;;;;;42.67;35.08;;;11.10;99.90;;;;;;4934957;28;20046;-76
2023/05/25 07:29:00;;;;;;;41.78;34.95;;;11.20;99.90;;;;;;4920568;28;20489;-75
2023/05/25 07:31:26;;;;;;;37.47;31.80;;;11.30;99.90;;;;;;4923923;28;20102;-75
2023/05/25 07:33:54;;;;;;;32.85;29.42;;;11.20;99.90;;;;;;4924850;28;20274;-75
2023/05/25 07:36:23;;;;;;;38.33;30.77;;;11.30;99.90;;;;;;4951341;28;20074;-74
2023/05/25 07:38:50;;;;;;;36.28;30.90;;;11.10;99.90;;;;;;4940444;28;20122;-75
2023/05/25 07:41:17;;;;;;;39.50;31.92;;;11.20;99.90;;;;;;4935469;28;20504;-76
2023/05/25 07:43:44;;;;;;;34.30;30.35;;;11.40;99.90;;;;;;4955032;28;20081;-75
2023/05/25 07:46:11;;;;;;;33.58;29.77;;;11.50;99.90;;;;;;4923230;28;20489;-75
2023/05/25 07:48:38;;;;;;;33.60;30.30;;;11.50;99.90;;;;;;4934055;28;20054;-76
2023/05/25 07:51:04;;;;;;;32.63;29.10;;;11.50;99.90;;;;;;4917584;28;20488;-76
2023/05/25 07:53:31;;;;;;;32.85;29.63;;;11.70;99.90;;;;;;4941260;28;20050;-75
2023/05/25 07:55:58;;;;;;;34.63;31.42;;;11.90;99.90;;;;;;4952950;28;20071;-75
2023/05/25 07:58:25;;;;;;;36.85;33.17;;;11.90;99.90;;;;;;4940629;28;20058;-75
2023/05/25 08:00:51;;;;;;;36.15;33.00;;;11.90;99.90;;;;;;4940777;28;20570;-75
2023/05/25 08:03:22;;;;;;;37.58;34.20;;;12.20;99.90;;;;;;4931062;28;20805;-75
2023/05/25 08:06:06;;;;;;;35.60;32.33;;;12.40;99.90;;;;;;4950276;28;20046;-75
2023/05/25 08:08:33;;;;;;;36.00;32.92;;;12.50;99.90;;;;;;4918763;28;20686;-76
2023/05/25 08:11:01;;;;;;;36.78;33.28;;;12.50;99.90;;;;;;4939907;28;20043;-76
2023/05/25 08:13:27;;;;;;;36.30;32.65;;;12.50;99.90;;;;;;4940798;28;20516;-75
2023/05/25 08:15:54;;;;;;;37.40;33.85;;;12.20;99.90;;;;;;4951968;28;20052;-75
2023/05/25 08:18:21;;;;;;;39.40;33.83;;;11.90;99.90;;;;;;4936331;28;20073;-75
2023/05/25 08:20:48;;;;;;;37.00;33.28;;;11.80;99.90;;;;;;4934627;28;20444;-76
2023/05/25 08:23:15;;;;;;;34.97;31.75;;;11.60;99.90;;;;;;4919587;28;20057;-76
2023/05/25 08:25:41;;;;;;;37.10;33.08;;;11.50;99.90;;;;;;4920874;28;20307;-74
2023/05/25 08:28:08;;;;;;;35.63;32.20;;;11.50;99.90;;;;;;4933409;28;20448;-75
2023/05/25 08:30:35;;;;;;;35.55;31.60;;;11.50;99.90;;;;;;4922115;28;20070;-75
2023/05/25 08:33:02;;;;;;;35.80;32.08;;;11.40;99.90;;;;;;4933869;28;20504;-74
2023/05/25 08:35:29;;;;;;;34.70;30.98;;;11.50;99.90;;;;;;4938284;28;20046;-76
2023/05/25 08:37:56;;;;;;;36.13;32.22;;;11.70;99.90;;;;;;4938690;28;20098;-76
2023/05/25 08:40:26;;;;;;;35.95;32.08;;;11.80;99.90;;;;;;4934191;28;20039;-75
2023/05/25 08:42:53;;;;;;;35.50;32.15;;;11.90;99.90;;;;;;4934858;28;20046;-75
2023/05/25 08:45:20;;;;;;;40.15;33.35;;;12.00;99.90;;;;;;4937423;28;20046;-75
2023/05/25 08:48:05;;;;;;;34.28;31.13;;;12.10;99.90;;;;;;4950308;28;20466;-75
2023/05/25 08:50:33;;;;;;;33.97;30.63;;;12.00;99.90;;;;;;4937861;28;20527;-76
2023/05/25 08:53:02;;;;;;;34.97;31.20;;;12.00;99.90;;;;;;4937855;28;20042;-74
2023/05/25 08:55:32;;;;;;;35.65;32.25;;;12.00;99.90;;;;;;4937651;28;20062;-75
2023/05/25 08:58:31;;;;;;;36.47;32.30;;;12.00;99.90;;;;;;4935891;28;20051;-74
2023/05/25 09:01:03;;;;;;;44.33;31.98;;;11.70;99.90;;;;;;4923278;28;20047;-76
2023/05/25 09:03:30;;;;;;;35.47;31.08;;;11.80;99.90;;;;;;4934331;28;20051;-74
2023/05/25 09:05:58;;;;;;;35.65;32.05;;;11.60;99.90;;;;;;4931361;28;20047;-75
2023/05/25 09:08:26;;;;;;;38.28;31.67;;;11.60;99.90;;;;;;4933544;28;20129;-74
2023/05/25 09:10:55;;;;;;;34.10;30.58;;;11.70;99.90;;;;;;4934695;28;20093;-75
2023/05/25 09:13:22;;;;;;;34.05;30.92;;;11.70;99.90;;;;;;4952414;28;20094;-74
2023/05/25 09:15:50;;;;;;;33.63;30.42;;;11.80;99.90;;;;;;4934119;28;20134;-74
2023/05/25 09:18:17;;;;;;;35.17;31.65;;;11.80;99.90;;;;;;4949974;28;20062;-76
2023/05/25 09:20:44;;;;;;;32.35;29.33;;;11.70;99.90;;;;;;4952657;28;20129;-75
2023/05/25 09:23:14;;;;;;;34.67;30.40;;;11.70;99.90;;;;;;4932776;28;20055;-75
2023/05/25 09:25:41;;;;;;;33.00;29.65;;;11.80;99.90;;;;;;4950295;28;20047;-74
2023/05/25 09:28:08;;;;;;;34.15;30.38;;;11.90;99.90;;;;;;4937656;28;20105;-78
2023/05/25 09:30:52;;;;;;;33.97;31.13;;;11.90;99.90;;;;;;4930108;28;20442;-75
2023/05/25 09:33:20;;;;;;;34.88;31.10;;;12.10;99.90;;;;;;4917360;28;20094;-74
2023/05/25 09:35:47;;;;;;;41.88;32.60;;;11.90;99.90;;;;;;4919446;28;20059;-73
2023/05/25 09:38:15;;;;;;;37.05;33.03;;;11.80;99.90;;;;;;4930753;28;20121;-74
2023/05/25 09:40:42;;;;;;;34.63;31.25;;;11.70;99.90;;;;;;4950582;28;20055;-75
2023/05/25 09:43:11;;;;;;;34.88;31.23;;;11.70;99.90;;;;;;4932363;28;20050;-74
2023/05/25 09:45:48;;;;;;;36.95;32.20;;;11.90;99.90;;;;;;4933465;28;20166;-74
2023/05/25 09:48:15;;;;;;;37.30;33.15;;;12.00;99.90;;;;;;4920780;28;20042;-75
2023/05/25 09:50:42;;;;;;;40.88;34.28;;;12.10;99.90;;;;;;4931467;28;20044;-75
2023/05/25 09:53:10;;;;;;;36.45;32.95;;;12.10;99.90;;;;;;4947692;28;20051;-73
2023/05/25 09:55:37;;;;;;;37.92;33.00;;;11.90;99.90;;;;;;4920758;28;20508;-73
2023/05/25 09:58:22;;;;;;;40.38;32.33;;;11.80;99.90;;;;;;4933397;28;20160;-74
2023/05/25 10:00:54;;;;;;;36.75;33.03;;;12.00;99.90;;;;;;4937751;28;20457;-77
2023/05/25 10:03:21;;;;;;;38.58;32.42;;;12.10;99.90;;;;;;4933111;28;20042;-76
2023/05/25 10:05:49;;;;;;;34.25;30.98;;;12.10;99.90;;;;;;4949110;28;20098;-75
2023/05/25 10:08:18;;;;;;;34.83;31.38;;;12.20;99.90;;;;;;4944286;28;20034;-76
2023/05/25 10:10:48;;;;;;;36.95;33.10;;;12.30;99.90;;;;;;4929878;28;20307;-77
2023/05/25 10:13:21;;;;;;;38.30;34.33;;;12.40;99.90;;;;;;4938882;28;20043;-77
2023/05/25 10:15:52;;;;;;;38.08;34.40;;;12.40;99.90;;;;;;4938453;28;20094;-76
2023/05/25 10:18:24;;;;;;;37.33;33.28;;;12.30;99.90;;;;;;4950451;28;20049;-76
2023/05/25 10:21:01;;;;;;;36.75;33.08;;;12.50;99.90;;;;;;4935977;28;20063;-76
2023/05/25 10:23:40;;;;;;;37.05;33.20;;;12.50;99.90;;;;;;4937616;28;20055;-76
2023/05/25 10:26:07;;;;;;;35.88;32.22;;;12.20;99.90;;;;;;4931989;28;20046;-76
2023/05/25 10:28:36;;;;;;;35.17;31.50;;;12.10;99.90;;;;;;4935713;28;20043;-75
2023/05/25 10:31:04;;;;;;;36.85;32.97;;;12.00;99.90;;;;;;4935754;28;20051;-76
2023/05/25 10:33:32;;;;;;;35.38;31.92;;;12.10;99.90;;;;;;4921650;28;20043;-75
2023/05/25 10:36:00;;;;;;;34.95;31.35;;;12.00;99.90;;;;;;4936551;28;20047;-79
2023/05/25 10:38:39;;;;;;;35.67;32.47;;;12.00;99.90;;;;;;4934069;28;20138;-79
2023/05/25 10:41:08;;;;;;;36.72;32.78;;;12.00;99.90;;;;;;4933122;28;20149;-79
2023/05/25 10:43:39;;;;;;;35.92;32.17;;;12.10;99.90;;;;;;4951673;28;20190;-77
2023/05/25 10:46:06;;;;;;;33.45;30.25;;;12.20;99.90;;;;;;4932624;28;20562;-79
2023/05/25 10:48:45;;;;;;;36.40;31.42;;;12.30;99.90;;;;;;4937442;28;20047;-78
2023/05/25 10:51:13;;;;;;;35.75;32.10;;;12.20;99.90;;;;;;4943221;28;20204;-77
2023/05/25 10:53:59;;;;;;;36.55;32.72;;;12.20;99.90;;;;;;4934274;28;20050;-79
2023/05/25 10:56:26;;;;;;;35.25;31.70;;;12.20;99.90;;;;;;4929264;28;20668;-77
2023/05/25 10:58:52;;;;;;;36.53;33.17;;;12.20;99.90;;;;;;4934666;28;20043;-78
2023/05/25 11:01:19;;;;;;;36.05;32.15;;;12.30;99.90;;;;;;4922461;28;21275;-77
2023/05/25 11:03:47;;;;;;;35.17;31.70;;;12.30;99.90;;;;;;4925566;28;20054;-78
2023/05/25 11:06:15;;;;;;;34.28;31.20;;;12.30;99.90;;;;;;4931596;28;20233;-77
2023/05/25 11:08:55;;;;;;;35.40;32.35;;;12.30;99.90;;;;;;4912647;28;20290;-77
2023/05/25 11:11:42;;;;;;;33.90;31.05;;;12.40;99.90;;;;;;4934641;28;20087;-78
2023/05/25 11:14:22;;;;;;;35.63;32.00;;;12.40;99.90;;;;;;4950903;28;20051;-78
2023/05/25 11:17:23;;;;;;;35.90;32.38;;;12.50;99.90;;;;;;4936965;28;20050;-79
2023/05/25 11:19:52;;;;;;;38.72;34.70;;;12.50;99.90;;;;;;4905248;28;20659;-77
2023/05/25 11:22:21;;;;;;;35.10;32.05;;;12.50;99.90;;;;;;4936742;28;20475;-77
2023/05/25 11:24:50;;;;;;;34.58;31.17;;;12.60;99.90;;;;;;4922550;28;20059;-77
2023/05/25 11:27:28;;;;;;;34.78;31.60;;;12.60;99.90;;;;;;4921349;28;20038;-78
2023/05/25 11:29:56;;;;;;;36.05;32.28;;;12.50;99.90;;;;;;4950281;28;20051;-77
2023/05/25 11:32:24;;;;;;;37.58;33.90;;;12.50;99.90;;;;;;4936947;28;20035;-77
2023/05/25 11:34:52;;;;;;;35.25;32.28;;;12.60;99.90;;;;;;4937394;28;20470;-79
2023/05/25 11:37:21;;;;;;;35.40;32.05;;;12.70;99.90;;;;;;4934125;28;20092;-79
2023/05/25 11:39:48;;;;;;;37.85;34.05;;;12.80;99.90;;;;;;4938091;28;20046;-78
2023/05/25 11:42:16;;;;;;;37.85;34.20;;;13.00;99.90;;;;;;4950041;28;20098;-77
2023/05/25 11:44:43;;;;;;;37.22;33.92;;;13.00;99.90;;;;;;4916708;28;20453;-78
2023/05/25 11:47:13;;;;;;;35.63;32.83;;;12.90;99.90;;;;;;4935543;28;20043;-78
2023/05/25 11:49:41;;;;;;;36.35;33.50;;;13.20;99.90;;;;;;4923385;28;20057;-78
2023/05/25 11:52:08;;;;;;;37.15;33.72;;;13.10;99.90;;;;;;4927799;28;20078;-79
2023/05/25 11:54:35;;;;;;;36.97;33.72;;;13.20;99.90;;;;;;4925640;28;20508;-76
2023/05/25 11:57:02;;;;;;;37.05;33.75;;;13.40;99.90;;;;;;4934565;28;20456;-77
2023/05/25 11:59:29;;;;;;;36.55;33.15;;;13.40;99.90;;;;;;4952267;28;20054;-78
2023/05/25 12:02:03;;;;;;;37.42;34.05;;;13.70;99.90;;;;;;4952850;28;20475;-78
2023/05/25 12:04:33;;;;;;;37.10;33.72;;;13.90;99.90;;;;;;4951392;28;20043;-77
2023/05/25 12:07:05;;;;;;;38.45;34.92;;;13.70;99.90;;;;;;4935999;28;20368;-76
2023/05/25 12:09:33;;;;;;;35.00;32.20;;;13.70;99.90;;;;;;4922425;28;20157;-77
2023/05/25 12:12:03;;;;;;;36.60;33.50;;;13.80;99.90;;;;;;4953802;28;20111;-77
2023/05/25 12:14:30;;;;;;;37.88;34.42;;;13.60;99.90;;;;;;4951441;28;20050;-77
2023/05/25 12:16:57;;;;;;;37.40;34.20;;;13.50;99.90;;;;;;4920381;28;20424;-78
2023/05/25 12:19:24;;;;;;;36.80;33.80;;;13.70;99.90;;;;;;4935657;28;20051;-77
2023/05/25 12:21:51;;;;;;;37.08;33.55;;;14.00;99.90;;;;;;4924573;28;20078;-77
2023/05/25 12:24:18;;;;;;;37.35;33.60;;;14.20;99.90;;;;;;4951577;28;20236;-78
2023/05/25 12:26:56;;;;;;;36.85;33.85;;;14.60;99.90;;;;;;4951149;28;20154;-77
2023/05/25 12:29:24;;;;;;;37.08;33.92;;;14.70;99.90;;;;;;4921745;28;20043;-79
2023/05/25 12:31:51;;;;;;;38.28;34.80;;;14.50;99.90;;;;;;4916933;28;20094;-78
2023/05/25 12:34:18;;;;;;;36.33;33.42;;;14.40;99.90;;;;;;4916429;28;20325;-78
2023/05/25 12:36:51;;;;;;;35.63;32.65;;;14.40;99.90;;;;;;4921312;28;20046;-78
2023/05/25 12:39:33;;;;;;;35.72;32.58;;;14.50;99.90;;;;;;4933877;28;20039;-78
2023/05/25 12:42:01;;;;;;;35.30;32.35;;;14.20;99.90;;;;;;4936540;28;20657;-78